sensor_id;sensor_type;location;lat;lon;timestamp;temperature;humidity
37356;DHT22;48747;50.250;18.848;2023-07-31T00:01:02;17.60;99.90
37356;DHT22;48747;50.250;18.848;2023-07-31T00:03:05;17.50;99.90
37356;DHT22;48747;50.250;18.848;2023-07-31T00:05:09;17.60;99.90
37356;DHT22;48747;50.250;18.848;2023-07-31T00:07:12;17.60;99.90
37356;DHT22;48747;50.250;18.848;2023-07-31T00:09:15;17.60;99.90
37356;DHT22;48747;50.250;18.848;2023-07-31T00:11:18;17.60;99.90
37356;DHT22;48747;50.250;18.848;2023-07-31T00:13:21;17.50;99.90
37356;DHT22;48747;50.250;18.848;2023-07-31T00:15:24;17.50;99.90
37356;DHT22;48747;50.250;18.848;2023-07-31T00:17:27;17.50;99.90
37356;DHT22;48747;50.250;18.848;2023-07-31T00:19:30;17.40;99.90
37356;DHT22;48747;50.250;18.848;2023-07-31T00:21:33;17.40;99.90
37356;DHT22;48747;50.250;18.848;2023-07-31T00:23:36;17.40;99.90
37356;DHT22;48747;50.250;18.848;2023-07-31T00:25:39;17.30;99.90
37356;DHT22;48747;50.250;18.848;2023-07-31T00:27:42;17.20;99.90
37356;DHT22;48747;50.250;18.848;2023-07-31T00:29:47;17.20;99.90
37356;DHT22;48747;50.250;18.848;2023-07-31T00:31:50;17.20;99.90
37356;DHT22;48747;50.250;18.848;2023-07-31T00:33:53;17.20;99.90
37356;DHT22;48747;50.250;18.848;2023-07-31T00:35:56;17.20;99.90
37356;DHT22;48747;50.250;18.848;2023-07-31T00:37:59;17.20;99.90
37356;DHT22;48747;50.250;18.848;2023-07-31T00:40:02;17.20;99.90
37356;DHT22;48747;50.250;18.848;2023-07-31T00:42:06;17.20;99.90
37356;DHT22;48747;50.250;18.848;2023-07-31T00:44:09;17.20;99.90
37356;DHT22;48747;50.250;18.848;2023-07-31T00:46:12;17.20;99.90
37356;DHT22;48747;50.250;18.848;2023-07-31T00:48:15;17.20;99.90
37356;DHT22;48747;50.250;18.848;2023-07-31T00:50:18;17.20;99.90
37356;DHT22;48747;50.250;18.848;2023-07-31T00:52:22;17.20;99.90
37356;DHT22;48747;50.250;18.848;2023-07-31T00:54:25;17.20;99.90
37356;DHT22;48747;50.250;18.848;2023-07-31T00:56:29;17.20;99.90
37356;DHT22;48747;50.250;18.848;2023-07-31T00:58:32;17.20;99.90
37356;DHT22;48747;50.250;18.848;2023-07-31T01:00:35;17.20;99.90
37356;DHT22;48747;50.250;18.848;2023-07-31T01:02:38;17.10;99.90
37356;DHT22;48747;50.250;18.848;2023-07-31T01:04:43;17.00;99.90
37356;DHT22;48747;50.250;18.848;2023-07-31T01:06:48;17.00;99.90
37356;DHT22;48747;50.250;18.848;2023-07-31T01:09:22;17.00;99.90
37356;DHT22;48747;50.250;18.848;2023-07-31T01:11:28;17.00;99.90
37356;DHT22;48747;50.250;18.848;2023-07-31T01:13:31;17.00;99.90
37356;DHT22;48747;50.250;18.848;2023-07-31T01:15:35;16.90;99.90
37356;DHT22;48747;50.250;18.848;2023-07-31T01:17:38;16.90;99.90
37356;DHT22;48747;50.250;18.848;2023-07-31T01:19:41;16.80;99.90
37356;DHT22;48747;50.250;18.848;2023-07-31T01:26:30;16.70;99.90
37356;DHT22;48747;50.250;18.848;2023-07-31T01:28:56;16.70;99.90
37356;DHT22;48747;50.250;18.848;2023-07-31T01:31:00;16.70;99.90
37356;DHT22;48747;50.250;18.848;2023-07-31T01:33:05;16.70;99.90
37356;DHT22;48747;50.250;18.848;2023-07-31T01:35:10;16.60;99.90
37356;DHT22;48747;50.250;18.848;2023-07-31T01:37:13;16.60;99.90
37356;DHT22;48747;50.250;18.848;2023-07-31T01:39:16;16.50;99.90
37356;DHT22;48747;50.250;18.848;2023-07-31T01:41:19;16.40;99.90
37356;DHT22;48747;50.250;18.848;2023-07-31T01:43:22;16.40;99.90
37356;DHT22;48747;50.250;18.848;2023-07-31T01:45:26;16.50;99.90
37356;DHT22;48747;50.250;18.848;2023-07-31T01:47:29;16.40;99.90
37356;DHT22;48747;50.250;18.848;2023-07-31T01:49:32;16.40;99.90
37356;DHT22;48747;50.250;18.848;2023-07-31T01:51:35;16.40;99.90
37356;DHT22;48747;50.250;18.848;2023-07-31T01:53:38;16.40;99.90
37356;DHT22;48747;50.250;18.848;2023-07-31T01:55:41;16.50;99.90
37356;DHT22;48747;50.250;18.848;2023-07-31T01:57:44;16.50;99.90
37356;DHT22;48747;50.250;18.848;2023-07-31T01:59:47;16.60;99.90
37356;DHT22;48747;50.250;18.848;2023-07-31T02:01:51;16.60;99.90
37356;DHT22;48747;50.250;18.848;2023-07-31T02:03:54;16.60;99.90
37356;DHT22;48747;50.250;18.848;2023-07-31T02:05:57;16.70;99.90
37356;DHT22;48747;50.250;18.848;2023-07-31T02:08:00;16.70;99.90
37356;DHT22;48747;50.250;18.848;2023-07-31T02:10:03;16.80;99.90
37356;DHT22;48747;50.250;18.848;2023-07-31T02:12:06;16.80;99.90
37356;DHT22;48747;50.250;18.848;2023-07-31T02:14:10;16.80;99.90
37356;DHT22;48747;50.250;18.848;2023-07-31T02:16:13;16.90;99.90
37356;DHT22;48747;50.250;18.848;2023-07-31T02:18:16;16.80;99.90
37356;DHT22;48747;50.250;18.848;2023-07-31T02:20:19;16.90;99.90
37356;DHT22;48747;50.250;18.848;2023-07-31T02:22:28;16.90;99.90
37356;DHT22;48747;50.250;18.848;2023-07-31T02:24:27;16.90;99.90
37356;DHT22;48747;50.250;18.848;2023-07-31T02:26:31;16.80;99.90
37356;DHT22;48747;50.250;18.848;2023-07-31T02:28:34;16.80;99.90
37356;DHT22;48747;50.250;18.848;2023-07-31T02:30:37;16.70;99.90
37356;DHT22;48747;50.250;18.848;2023-07-31T02:32:40;16.70;99.90
37356;DHT22;48747;50.250;18.848;2023-07-31T02:34:43;16.70;99.90
37356;DHT22;48747;50.250;18.848;2023-07-31T02:36:46;16.70;99.90
37356;DHT22;48747;50.250;18.848;2023-07-31T02:38:49;16.70;99.90
37356;DHT22;48747;50.250;18.848;2023-07-31T02:40:52;16.60;99.90
37356;DHT22;48747;50.250;18.848;2023-07-31T02:42:55;16.60;99.90
37356;DHT22;48747;50.250;18.848;2023-07-31T02:44:58;16.70;99.90
37356;DHT22;48747;50.250;18.848;2023-07-31T02:47:01;16.70;99.90
37356;DHT22;48747;50.250;18.848;2023-07-31T02:49:05;16.70;99.90
37356;DHT22;48747;50.250;18.848;2023-07-31T02:51:08;16.60;99.90
37356;DHT22;48747;50.250;18.848;2023-07-31T02:53:11;16.60;99.90
37356;DHT22;48747;50.250;18.848;2023-07-31T02:55:14;16.60;99.90
37356;DHT22;48747;50.250;18.848;2023-07-31T02:57:17;16.60;99.90
37356;DHT22;48747;50.250;18.848;2023-07-31T02:59:20;16.60;99.90
37356;DHT22;48747;50.250;18.848;2023-07-31T03:01:24;16.50;99.90
37356;DHT22;48747;50.250;18.848;2023-07-31T03:03:27;16.50;99.90
37356;DHT22;48747;50.250;18.848;2023-07-31T03:05:30;16.50;99.90
37356;DHT22;48747;50.250;18.848;2023-07-31T03:07:33;16.50;99.90
37356;DHT22;48747;50.250;18.848;2023-07-31T03:09:36;16.50;99.90
37356;DHT22;48747;50.250;18.848;2023-07-31T03:11:39;16.50;99.90
37356;DHT22;48747;50.250;18.848;2023-07-31T03:13:42;16.50;99.90
37356;DHT22;48747;50.250;18.848;2023-07-31T03:15:45;16.50;99.90
37356;DHT22;48747;50.250;18.848;2023-07-31T03:17:48;16.40;99.90
37356;DHT22;48747;50.250;18.848;2023-07-31T03:19:51;16.40;99.90
37356;DHT22;48747;50.250;18.848;2023-07-31T03:21:54;16.40;99.90
37356;DHT22;48747;50.250;18.848;2023-07-31T03:23:57;16.40;99.90
37356;DHT22;48747;50.250;18.848;2023-07-31T03:26:06;16.50;99.90
37356;DHT22;48747;50.250;18.848;2023-07-31T03:28:06;16.50;99.90
37356;DHT22;48747;50.250;18.848;2023-07-31T03:30:09;16.50;99.90
37356;DHT22;48747;50.250;18.848;2023-07-31T03:32:12;16.50;99.90
37356;DHT22;48747;50.250;18.848;2023-07-31T03:34:15;16.50;99.90
37356;DHT22;48747;50.250;18.848;2023-07-31T03:36:18;16.50;99.90
37356;DHT22;48747;50.250;18.848;2023-07-31T03:38:22;16.60;99.90
37356;DHT22;48747;50.250;18.848;2023-07-31T03:40:25;16.60;99.90
37356;DHT22;48747;50.250;18.848;2023-07-31T03:42:28;16.70;99.90
37356;DHT22;48747;50.250;18.848;2023-07-31T03:44:31;16.70;99.90
37356;DHT22;48747;50.250;18.848;2023-07-31T03:46:34;16.70;99.90
37356;DHT22;48747;50.250;18.848;2023-07-31T03:48:38;16.70;99.90
37356;DHT22;48747;50.250;18.848;2023-07-31T03:50:41;16.60;99.90
37356;DHT22;48747;50.250;18.848;2023-07-31T03:52:44;16.60;99.90
37356;DHT22;48747;50.250;18.848;2023-07-31T03:54:47;16.70;99.90
37356;DHT22;48747;50.250;18.848;2023-07-31T03:56:50;16.70;99.90
37356;DHT22;48747;50.250;18.848;2023-07-31T03:58:53;16.70;99.90
37356;DHT22;48747;50.250;18.848;2023-07-31T04:00:56;16.80;99.90
37356;DHT22;48747;50.250;18.848;2023-07-31T04:02:59;16.80;99.90
37356;DHT22;48747;50.250;18.848;2023-07-31T04:05:02;16.70;99.90
37356;DHT22;48747;50.250;18.848;2023-07-31T04:07:05;16.70;99.90
37356;DHT22;48747;50.250;18.848;2023-07-31T04:09:08;16.70;99.90
37356;DHT22;48747;50.250;18.848;2023-07-31T04:11:11;16.80;99.90
37356;DHT22;48747;50.250;18.848;2023-07-31T04:13:15;16.70;99.90
37356;DHT22;48747;50.250;18.848;2023-07-31T04:15:18;16.90;99.90
37356;DHT22;48747;50.250;18.848;2023-07-31T04:17:21;16.90;99.90
37356;DHT22;48747;50.250;18.848;2023-07-31T04:19:24;17.00;99.90
37356;DHT22;48747;50.250;18.848;2023-07-31T04:21:27;17.10;99.90
37356;DHT22;48747;50.250;18.848;2023-07-31T04:23:30;17.10;99.90
37356;DHT22;48747;50.250;18.848;2023-07-31T04:25:33;17.20;99.90
37356;DHT22;48747;50.250;18.848;2023-07-31T04:27:37;17.20;99.90
37356;DHT22;48747;50.250;18.848;2023-07-31T04:29:40;17.30;99.90
37356;DHT22;48747;50.250;18.848;2023-07-31T04:31:44;17.30;99.90
37356;DHT22;48747;50.250;18.848;2023-07-31T04:33:47;17.40;99.90
37356;DHT22;48747;50.250;18.848;2023-07-31T04:35:51;17.50;99.90
37356;DHT22;48747;50.250;18.848;2023-07-31T04:37:55;17.50;99.90
37356;DHT22;48747;50.250;18.848;2023-07-31T04:39:58;17.60;99.90
37356;DHT22;48747;50.250;18.848;2023-07-31T04:42:01;17.60;99.90
37356;DHT22;48747;50.250;18.848;2023-07-31T04:44:04;17.60;99.90
37356;DHT22;48747;50.250;18.848;2023-07-31T04:46:07;17.60;99.90
37356;DHT22;48747;50.250;18.848;2023-07-31T04:48:10;17.70;99.90
37356;DHT22;48747;50.250;18.848;2023-07-31T04:50:13;17.70;99.90
37356;DHT22;48747;50.250;18.848;2023-07-31T04:52:16;17.60;99.90
37356;DHT22;48747;50.250;18.848;2023-07-31T04:54:19;17.60;99.90
37356;DHT22;48747;50.250;18.848;2023-07-31T04:56:22;17.60;99.90
37356;DHT22;48747;50.250;18.848;2023-07-31T04:58:26;17.60;99.90
37356;DHT22;48747;50.250;18.848;2023-07-31T05:00:29;17.60;99.90
37356;DHT22;48747;50.250;18.848;2023-07-31T05:02:32;17.70;99.90
37356;DHT22;48747;50.250;18.848;2023-07-31T05:04:35;17.70;99.90
37356;DHT22;48747;50.250;18.848;2023-07-31T05:06:38;17.90;99.90
37356;DHT22;48747;50.250;18.848;2023-07-31T05:08:41;17.90;99.90
37356;DHT22;48747;50.250;18.848;2023-07-31T05:10:44;18.10;99.90
37356;DHT22;48747;50.250;18.848;2023-07-31T05:12:47;18.20;99.90
37356;DHT22;48747;50.250;18.848;2023-07-31T05:14:50;18.30;99.90
37356;DHT22;48747;50.250;18.848;2023-07-31T05:16:53;18.50;99.90
37356;DHT22;48747;50.250;18.848;2023-07-31T05:18:56;18.70;99.90
37356;DHT22;48747;50.250;18.848;2023-07-31T05:20:59;18.80;99.90
37356;DHT22;48747;50.250;18.848;2023-07-31T05:23:02;18.90;99.90
37356;DHT22;48747;50.250;18.848;2023-07-31T05:25:05;19.10;99.90
37356;DHT22;48747;50.250;18.848;2023-07-31T05:27:09;19.10;99.90
37356;DHT22;48747;50.250;18.848;2023-07-31T05:29:12;19.10;99.90
37356;DHT22;48747;50.250;18.848;2023-07-31T05:31:15;19.10;99.90
37356;DHT22;48747;50.250;18.848;2023-07-31T05:33:18;19.00;99.90
37356;DHT22;48747;50.250;18.848;2023-07-31T05:35:21;19.00;99.90
37356;DHT22;48747;50.250;18.848;2023-07-31T05:37:24;19.00;99.90
37356;DHT22;48747;50.250;18.848;2023-07-31T05:39:27;19.10;99.90
37356;DHT22;48747;50.250;18.848;2023-07-31T05:41:30;19.30;99.90
37356;DHT22;48747;50.250;18.848;2023-07-31T05:43:33;19.40;99.90
37356;DHT22;48747;50.250;18.848;2023-07-31T05:45:36;19.40;99.90
37356;DHT22;48747;50.250;18.848;2023-07-31T05:47:40;19.50;99.90
37356;DHT22;48747;50.250;18.848;2023-07-31T05:49:43;19.40;99.90
37356;DHT22;48747;50.250;18.848;2023-07-31T05:51:46;19.40;99.90
37356;DHT22;48747;50.250;18.848;2023-07-31T05:53:49;19.30;99.90
37356;DHT22;48747;50.250;18.848;2023-07-31T05:55:52;19.30;99.90
37356;DHT22;48747;50.250;18.848;2023-07-31T05:57:55;19.20;99.90
37356;DHT22;48747;50.250;18.848;2023-07-31T05:59:58;19.30;99.90
37356;DHT22;48747;50.250;18.848;2023-07-31T06:02:01;19.30;99.90
37356;DHT22;48747;50.250;18.848;2023-07-31T06:04:04;19.40;99.90
37356;DHT22;48747;50.250;18.848;2023-07-31T06:06:07;19.50;99.90
37356;DHT22;48747;50.250;18.848;2023-07-31T06:08:10;19.40;99.90
37356;DHT22;48747;50.250;18.848;2023-07-31T06:10:13;19.50;99.90
37356;DHT22;48747;50.250;18.848;2023-07-31T06:12:16;19.50;99.90
37356;DHT22;48747;50.250;18.848;2023-07-31T06:14:21;19.50;99.90
37356;DHT22;48747;50.250;18.848;2023-07-31T06:16:25;19.60;99.90
37356;DHT22;48747;50.250;18.848;2023-07-31T06:18:29;19.70;99.90
37356;DHT22;48747;50.250;18.848;2023-07-31T06:20:32;19.90;99.90
37356;DHT22;48747;50.250;18.848;2023-07-31T06:22:35;20.00;99.90
37356;DHT22;48747;50.250;18.848;2023-07-31T06:24:38;19.90;99.90
37356;DHT22;48747;50.250;18.848;2023-07-31T06:26:41;19.90;99.90
37356;DHT22;48747;50.250;18.848;2023-07-31T06:28:44;20.00;99.90
37356;DHT22;48747;50.250;18.848;2023-07-31T06:30:47;20.10;99.90
37356;DHT22;48747;50.250;18.848;2023-07-31T06:32:50;20.20;99.90
37356;DHT22;48747;50.250;18.848;2023-07-31T06:34:53;20.10;99.90
37356;DHT22;48747;50.250;18.848;2023-07-31T06:36:56;20.10;99.90
37356;DHT22;48747;50.250;18.848;2023-07-31T06:38:59;20.20;99.90
37356;DHT22;48747;50.250;18.848;2023-07-31T06:41:03;20.20;99.90
37356;DHT22;48747;50.250;18.848;2023-07-31T06:43:06;20.20;99.90
37356;DHT22;48747;50.250;18.848;2023-07-31T06:45:12;20.20;99.90
37356;DHT22;48747;50.250;18.848;2023-07-31T06:47:15;20.20;99.90
37356;DHT22;48747;50.250;18.848;2023-07-31T06:49:18;20.30;99.90
37356;DHT22;48747;50.250;18.848;2023-07-31T06:51:21;20.40;99.90
37356;DHT22;48747;50.250;18.848;2023-07-31T06:53:24;20.40;99.90
37356;DHT22;48747;50.250;18.848;2023-07-31T06:55:27;20.50;99.90
37356;DHT22;48747;50.250;18.848;2023-07-31T06:57:30;20.60;99.90
37356;DHT22;48747;50.250;18.848;2023-07-31T06:59:33;20.70;99.90
37356;DHT22;48747;50.250;18.848;2023-07-31T07:01:36;20.80;99.90
37356;DHT22;48747;50.250;18.848;2023-07-31T07:03:39;20.80;99.90
37356;DHT22;48747;50.250;18.848;2023-07-31T07:05:42;20.90;99.90
37356;DHT22;48747;50.250;18.848;2023-07-31T07:07:46;20.90;99.90
37356;DHT22;48747;50.250;18.848;2023-07-31T07:09:49;21.00;99.90
37356;DHT22;48747;50.250;18.848;2023-07-31T07:11:52;21.10;99.90
37356;DHT22;48747;50.250;18.848;2023-07-31T07:13:55;20.90;99.90
37356;DHT22;48747;50.250;18.848;2023-07-31T07:15:58;20.80;99.90
37356;DHT22;48747;50.250;18.848;2023-07-31T07:18:01;20.80;99.90
37356;DHT22;48747;50.250;18.848;2023-07-31T07:20:06;20.80;99.90
37356;DHT22;48747;50.250;18.848;2023-07-31T07:22:10;20.90;99.90
37356;DHT22;48747;50.250;18.848;2023-07-31T07:24:13;20.90;99.90
37356;DHT22;48747;50.250;18.848;2023-07-31T07:26:16;21.00;99.90
37356;DHT22;48747;50.250;18.848;2023-07-31T07:28:19;21.10;99.90
37356;DHT22;48747;50.250;18.848;2023-07-31T07:30:22;21.30;99.90
37356;DHT22;48747;50.250;18.848;2023-07-31T07:32:28;21.40;99.90
37356;DHT22;48747;50.250;18.848;2023-07-31T07:34:32;21.40;99.90
37356;DHT22;48747;50.250;18.848;2023-07-31T07:36:35;21.50;99.90
37356;DHT22;48747;50.250;18.848;2023-07-31T07:38:39;21.70;99.90
37356;DHT22;48747;50.250;18.848;2023-07-31T07:40:43;21.70;99.90
37356;DHT22;48747;50.250;18.848;2023-07-31T07:42:46;21.70;99.90
37356;DHT22;48747;50.250;18.848;2023-07-31T07:44:50;21.80;99.90
37356;DHT22;48747;50.250;18.848;2023-07-31T07:46:53;21.70;99.90
37356;DHT22;48747;50.250;18.848;2023-07-31T07:48:56;21.80;99.90
37356;DHT22;48747;50.250;18.848;2023-07-31T07:50:59;21.80;99.90
37356;DHT22;48747;50.250;18.848;2023-07-31T07:53:02;21.80;99.90
37356;DHT22;48747;50.250;18.848;2023-07-31T07:55:05;21.80;99.90
37356;DHT22;48747;50.250;18.848;2023-07-31T07:57:08;21.90;99.90
37356;DHT22;48747;50.250;18.848;2023-07-31T07:59:11;21.90;99.90
37356;DHT22;48747;50.250;18.848;2023-07-31T08:01:14;21.90;99.90
37356;DHT22;48747;50.250;18.848;2023-07-31T08:03:17;21.90;99.90
37356;DHT22;48747;50.250;18.848;2023-07-31T08:05:20;21.80;99.90
37356;DHT22;48747;50.250;18.848;2023-07-31T08:07:23;21.80;99.90
37356;DHT22;48747;50.250;18.848;2023-07-31T08:09:26;21.70;99.90
37356;DHT22;48747;50.250;18.848;2023-07-31T08:11:29;21.60;99.90
37356;DHT22;48747;50.250;18.848;2023-07-31T08:13:32;21.70;99.90
37356;DHT22;48747;50.250;18.848;2023-07-31T08:15:35;21.70;99.90
37356;DHT22;48747;50.250;18.848;2023-07-31T08:17:38;21.80;99.90
37356;DHT22;48747;50.250;18.848;2023-07-31T08:19:41;22.00;99.90
37356;DHT22;48747;50.250;18.848;2023-07-31T08:21:46;22.00;99.90
37356;DHT22;48747;50.250;18.848;2023-07-31T08:23:49;21.90;99.90
37356;DHT22;48747;50.250;18.848;2023-07-31T08:25:52;21.80;99.90
37356;DHT22;48747;50.250;18.848;2023-07-31T08:27:55;21.80;99.90
37356;DHT22;48747;50.250;18.848;2023-07-31T08:29:58;21.90;99.90
37356;DHT22;48747;50.250;18.848;2023-07-31T08:32:01;22.00;99.90
37356;DHT22;48747;50.250;18.848;2023-07-31T08:34:04;22.10;99.90
37356;DHT22;48747;50.250;18.848;2023-07-31T08:36:07;22.20;99.90
37356;DHT22;48747;50.250;18.848;2023-07-31T08:38:11;22.10;99.90
37356;DHT22;48747;50.250;18.848;2023-07-31T08:40:14;22.20;99.90
37356;DHT22;48747;50.250;18.848;2023-07-31T08:42:18;22.30;99.90
37356;DHT22;48747;50.250;18.848;2023-07-31T08:44:21;22.60;99.90
37356;DHT22;48747;50.250;18.848;2023-07-31T08:46:25;22.70;99.90
37356;DHT22;48747;50.250;18.848;2023-07-31T08:48:28;23.00;99.90
37356;DHT22;48747;50.250;18.848;2023-07-31T08:50:32;23.10;92.20
37356;DHT22;48747;50.250;18.848;2023-07-31T08:52:35;22.80;95.40
37356;DHT22;48747;50.250;18.848;2023-07-31T08:54:38;22.80;95.80
37356;DHT22;48747;50.250;18.848;2023-07-31T08:56:42;22.80;93.90
37356;DHT22;48747;50.250;18.848;2023-07-31T08:58:46;22.80;91.20
37356;DHT22;48747;50.250;18.848;2023-07-31T09:00:51;22.70;92.60
37356;DHT22;48747;50.250;18.848;2023-07-31T09:03:08;22.80;92.90
37356;DHT22;48747;50.250;18.848;2023-07-31T09:05:09;23.10;91.20
37356;DHT22;48747;50.250;18.848;2023-07-31T09:07:14;23.30;92.80
37356;DHT22;48747;50.250;18.848;2023-07-31T09:09:18;23.60;91.60
37356;DHT22;48747;50.250;18.848;2023-07-31T09:11:24;23.70;91.20
37356;DHT22;48747;50.250;18.848;2023-07-31T09:13:31;23.70;92.30
37356;DHT22;48747;50.250;18.848;2023-07-31T09:15:35;23.90;91.80
37356;DHT22;48747;50.250;18.848;2023-07-31T09:17:38;24.00;87.10
37356;DHT22;48747;50.250;18.848;2023-07-31T09:19:41;24.10;85.70
37356;DHT22;48747;50.250;18.848;2023-07-31T09:21:51;24.10;82.10
37356;DHT22;48747;50.250;18.848;2023-07-31T09:23:55;24.00;82.70
37356;DHT22;48747;50.250;18.848;2023-07-31T09:25:58;23.90;77.00
37356;DHT22;48747;50.250;18.848;2023-07-31T09:28:09;23.80;76.10
37356;DHT22;48747;50.250;18.848;2023-07-31T09:30:13;23.70;76.30
37356;DHT22;48747;50.250;18.848;2023-07-31T09:32:17;23.70;79.00
37356;DHT22;48747;50.250;18.848;2023-07-31T09:34:20;23.70;80.10
37356;DHT22;48747;50.250;18.848;2023-07-31T09:36:25;23.80;80.50
37356;DHT22;48747;50.250;18.848;2023-07-31T09:38:28;23.90;73.20
37356;DHT22;48747;50.250;18.848;2023-07-31T09:40:33;24.00;74.80
37356;DHT22;48747;50.250;18.848;2023-07-31T09:42:37;23.90;72.20
37356;DHT22;48747;50.250;18.848;2023-07-31T09:44:41;23.70;70.90
37356;DHT22;48747;50.250;18.848;2023-07-31T09:46:44;23.80;77.90
37356;DHT22;48747;50.250;18.848;2023-07-31T09:48:47;24.10;78.20
37356;DHT22;48747;50.250;18.848;2023-07-31T09:50:50;24.30;75.90
37356;DHT22;48747;50.250;18.848;2023-07-31T09:52:53;24.30;74.90
37356;DHT22;48747;50.250;18.848;2023-07-31T09:54:56;24.10;68.40
37356;DHT22;48747;50.250;18.848;2023-07-31T09:57:00;23.90;71.40
37356;DHT22;48747;50.250;18.848;2023-07-31T09:59:04;24.10;71.90
37356;DHT22;48747;50.250;18.848;2023-07-31T10:01:07;24.30;66.90
37356;DHT22;48747;50.250;18.848;2023-07-31T10:03:11;24.60;67.70
37356;DHT22;48747;50.250;18.848;2023-07-31T10:05:15;24.90;66.20
37356;DHT22;48747;50.250;18.848;2023-07-31T10:07:19;24.90;65.60
37356;DHT22;48747;50.250;18.848;2023-07-31T10:09:25;24.60;65.80
37356;DHT22;48747;50.250;18.848;2023-07-31T10:11:30;24.50;66.90
37356;DHT22;48747;50.250;18.848;2023-07-31T10:13:36;24.40;66.50
37356;DHT22;48747;50.250;18.848;2023-07-31T10:15:39;24.30;65.60
37356;DHT22;48747;50.250;18.848;2023-07-31T10:17:53;24.10;66.80
37356;DHT22;48747;50.250;18.848;2023-07-31T10:19:53;24.20;67.40
37356;DHT22;48747;50.250;18.848;2023-07-31T10:21:56;24.40;69.60
37356;DHT22;48747;50.250;18.848;2023-07-31T10:24:05;24.40;68.00
37356;DHT22;48747;50.250;18.848;2023-07-31T10:26:08;24.40;65.90
37356;DHT22;48747;50.250;18.848;2023-07-31T10:28:11;24.50;66.40
37356;DHT22;48747;50.250;18.848;2023-07-31T10:30:17;24.60;64.80
37356;DHT22;48747;50.250;18.848;2023-07-31T10:32:23;24.90;63.80
37356;DHT22;48747;50.250;18.848;2023-07-31T10:34:28;25.40;64.50
37356;DHT22;48747;50.250;18.848;2023-07-31T10:36:34;25.70;62.50
37356;DHT22;48747;50.250;18.848;2023-07-31T10:38:38;25.90;62.20
37356;DHT22;48747;50.250;18.848;2023-07-31T10:40:41;26.00;60.90
37356;DHT22;48747;50.250;18.848;2023-07-31T10:42:52;26.00;61.80
37356;DHT22;48747;50.250;18.848;2023-07-31T10:44:58;26.00;61.00
37356;DHT22;48747;50.250;18.848;2023-07-31T10:47:03;25.90;60.60
37356;DHT22;48747;50.250;18.848;2023-07-31T10:49:07;25.80;60.40
37356;DHT22;48747;50.250;18.848;2023-07-31T10:51:11;25.70;60.60
37356;DHT22;48747;50.250;18.848;2023-07-31T10:53:26;25.50;61.40
37356;DHT22;48747;50.250;18.848;2023-07-31T10:55:41;25.40;62.70
37356;DHT22;48747;50.250;18.848;2023-07-31T10:57:47;25.20;60.30
37356;DHT22;48747;50.250;18.848;2023-07-31T10:59:50;25.20;61.50
37356;DHT22;48747;50.250;18.848;2023-07-31T11:01:55;25.30;59.30
37356;DHT22;48747;50.250;18.848;2023-07-31T11:04:10;25.40;59.00
37356;DHT22;48747;50.250;18.848;2023-07-31T11:06:11;25.40;59.00
37356;DHT22;48747;50.250;18.848;2023-07-31T11:08:19;25.50;61.40
37356;DHT22;48747;50.250;18.848;2023-07-31T11:10:23;25.60;60.80
37356;DHT22;48747;50.250;18.848;2023-07-31T11:12:29;25.70;59.50
37356;DHT22;48747;50.250;18.848;2023-07-31T11:14:32;25.70;59.30
37356;DHT22;48747;50.250;18.848;2023-07-31T11:16:35;25.80;59.20
37356;DHT22;48747;50.250;18.848;2023-07-31T11:18:40;25.80;60.10
37356;DHT22;48747;50.250;18.848;2023-07-31T11:20:43;26.00;60.20
37356;DHT22;48747;50.250;18.848;2023-07-31T11:22:47;25.90;57.20
37356;DHT22;48747;50.250;18.848;2023-07-31T11:24:50;26.00;57.90
37356;DHT22;48747;50.250;18.848;2023-07-31T11:26:53;26.10;57.20
37356;DHT22;48747;50.250;18.848;2023-07-31T11:28:56;26.20;59.80
37356;DHT22;48747;50.250;18.848;2023-07-31T11:30:59;26.30;58.20
37356;DHT22;48747;50.250;18.848;2023-07-31T11:33:05;26.20;56.30
37356;DHT22;48747;50.250;18.848;2023-07-31T11:35:12;26.20;58.00
37356;DHT22;48747;50.250;18.848;2023-07-31T11:37:14;26.20;58.60
37356;DHT22;48747;50.250;18.848;2023-07-31T11:39:17;26.10;57.70
37356;DHT22;48747;50.250;18.848;2023-07-31T11:41:20;26.00;58.10
37356;DHT22;48747;50.250;18.848;2023-07-31T11:43:23;25.80;56.80
37356;DHT22;48747;50.250;18.848;2023-07-31T11:45:27;25.50;57.10
37356;DHT22;48747;50.250;18.848;2023-07-31T11:47:32;25.40;57.80
37356;DHT22;48747;50.250;18.848;2023-07-31T11:49:37;25.30;58.90
37356;DHT22;48747;50.250;18.848;2023-07-31T11:51:40;25.20;59.00
37356;DHT22;48747;50.250;18.848;2023-07-31T11:53:51;25.00;58.90
37356;DHT22;48747;50.250;18.848;2023-07-31T11:55:56;24.90;60.80
37356;DHT22;48747;50.250;18.848;2023-07-31T11:58:01;24.70;60.10
37356;DHT22;48747;50.250;18.848;2023-07-31T12:00:04;24.60;61.80
37356;DHT22;48747;50.250;18.848;2023-07-31T12:02:09;24.60;61.20
37356;DHT22;48747;50.250;18.848;2023-07-31T12:04:12;24.60;61.50
37356;DHT22;48747;50.250;18.848;2023-07-31T12:06:15;24.60;62.20
37356;DHT22;48747;50.250;18.848;2023-07-31T12:08:23;24.60;61.60
37356;DHT22;48747;50.250;18.848;2023-07-31T12:10:31;24.60;62.70
37356;DHT22;48747;50.250;18.848;2023-07-31T12:12:35;24.70;62.70
37356;DHT22;48747;50.250;18.848;2023-07-31T12:14:41;24.70;62.30
37356;DHT22;48747;50.250;18.848;2023-07-31T12:16:50;24.70;62.70
37356;DHT22;48747;50.250;18.848;2023-07-31T12:18:50;24.70;63.20
37356;DHT22;48747;50.250;18.848;2023-07-31T12:20:57;24.70;62.60
37356;DHT22;48747;50.250;18.848;2023-07-31T12:23:01;24.80;61.90
37356;DHT22;48747;50.250;18.848;2023-07-31T12:25:04;25.10;62.70
37356;DHT22;48747;50.250;18.848;2023-07-31T12:27:12;25.20;60.70
37356;DHT22;48747;50.250;18.848;2023-07-31T12:29:15;25.20;61.90
37356;DHT22;48747;50.250;18.848;2023-07-31T12:31:21;25.30;62.30
37356;DHT22;48747;50.250;18.848;2023-07-31T12:33:29;25.20;60.50
37356;DHT22;48747;50.250;18.848;2023-07-31T12:35:37;25.20;61.40
37356;DHT22;48747;50.250;18.848;2023-07-31T12:37:41;25.20;61.30
37356;DHT22;48747;50.250;18.848;2023-07-31T12:39:44;25.30;61.20
37356;DHT22;48747;50.250;18.848;2023-07-31T12:41:47;25.30;61.60
37356;DHT22;48747;50.250;18.848;2023-07-31T12:43:50;25.50;60.50
37356;DHT22;48747;50.250;18.848;2023-07-31T12:45:57;25.80;61.30
37356;DHT22;48747;50.250;18.848;2023-07-31T12:48:00;25.90;59.40
37356;DHT22;48747;50.250;18.848;2023-07-31T12:50:04;25.90;60.10
37356;DHT22;48747;50.250;18.848;2023-07-31T12:52:09;26.20;60.40
37356;DHT22;48747;50.250;18.848;2023-07-31T12:59:19;27.00;56.70